Time;durP1;ratioP1;P1;durP2;ratioP2;P2;SDS_P1;SDS_P2;PMS_P1;PMS_P2;Temp;Humidity;BMP_temperature;BMP_pressure;BME280_temperature;BME280_humidity;BME280_pressure;Samples;Min_cycle;Max_cycle;Signal;HPM_P1;HPM_P2
2021/07/28 00:01:29;;;;;;;0.10;0.10;;;;;;;;;;4809367;29;20066;-92
2021/07/28 00:03:55;;;;;;;0.10;0.10;;;;;;;;;;4824374;29;20472;-92
2021/07/28 00:06:21;;;;;;;0.10;0.10;;;;;;;;;;4809615;29;20054;-92
2021/07/28 00:08:47;;;;;;;0.10;0.10;;;;;;;;;;4793828;29;20094;-91
2021/07/28 00:11:14;;;;;;;0.10;0.10;;;;;;;;;;4809036;29;20062;-93
2021/07/28 00:13:40;;;;;;;0.20;0.20;;;;;;;;;;4809473;29;20126;-92
2021/07/28 00:16:11;;;;;;;0.10;0.10;;;;;;;;;;4809507;29;20046;-92
2021/07/28 00:18:48;;;;;;;0.20;0.20;;;;;;;;;;4809318;29;20065;-92
2021/07/28 00:23:59;;;;;;;0.10;0.10;;;;;;;;;;4824132;29;20115;-93
2021/07/28 00:26:25;;;;;;;0.20;0.20;;;;;;;;;;4808741;29;20043;-92
2021/07/28 00:28:51;;;;;;;0.10;0.10;;;;;;;;;;4808907;29;20045;-92
2021/07/28 00:31:17;;;;;;;0.10;0.10;;;;;;;;;;4808855;29;20099;-92
2021/07/28 00:33:43;;;;;;;0.20;0.20;;;;;;;;;;4793524;29;20047;-92
2021/07/28 00:36:09;;;;;;;0.10;0.10;;;;;;;;;;4808874;29;20041;-92
2021/07/28 00:38:36;;;;;;;0.10;0.10;;;;;;;;;;4808624;29;20523;-92
2021/07/28 00:41:02;;;;;;;0.10;0.10;;;;;;;;;;4808714;29;20503;-93
2021/07/28 00:43:29;;;;;;;0.15;0.15;;;;;;;;;;4808412;29;20046;-92
2021/07/28 00:45:55;;;;;;;0.20;0.20;;;;;;;;;;4808550;29;20059;-92
2021/07/28 00:48:24;;;;;;;0.15;0.15;;;;;;;;;;4793322;29;20114;-93
2021/07/28 00:50:50;;;;;;;0.10;0.10;;;;;;;;;;4793410;29;20054;-91
2021/07/28 00:53:19;;;;;;;0.10;0.10;;;;;;;;;;4808268;29;20051;-92
2021/07/28 00:55:45;;;;;;;0.10;0.10;;;;;;;;;;4808159;29;20086;-90
2021/07/28 00:58:11;;;;;;;0.10;0.10;;;;;;;;;;4808375;29;20094;-91
2021/07/28 01:00:37;;;;;;;0.10;0.10;;;;;;;;;;4808226;29;20412;-92
2021/07/28 01:03:03;;;;;;;0.10;0.10;;;;;;;;;;4808348;29;20062;-92
2021/07/28 01:05:30;;;;;;;0.10;0.10;;;;;;;;;;4808193;29;20046;-91
2021/07/28 01:07:56;;;;;;;0.20;0.20;;;;;;;;;;4808060;29;20498;-91
2021/07/28 01:10:22;;;;;;;0.10;0.10;;;;;;;;;;4808148;29;20046;-91
2021/07/28 01:12:52;;;;;;;0.20;0.20;;;;;;;;;;4793173;29;20057;-91
2021/07/28 01:18:04;;;;;;;0.10;0.10;;;;;;;;;;4813967;29;20388;-92
2021/07/28 01:20:37;;;;;;;0.20;0.20;;;;;;;;;;4794167;29;20054;-92
2021/07/28 01:23:04;;;;;;;0.10;0.10;;;;;;;;;;4808047;29;20065;-93
2021/07/28 01:25:31;;;;;;;0.10;0.10;;;;;;;;;;4808058;29;20042;-93
2021/07/28 01:27:57;;;;;;;0.10;0.10;;;;;;;;;;4808011;29;20456;-92
2021/07/28 01:30:23;;;;;;;0.10;0.10;;;;;;;;;;4807959;29;20072;-91
2021/07/28 01:32:49;;;;;;;0.20;0.20;;;;;;;;;;4807618;29;20042;-90
2021/07/28 01:35:16;;;;;;;0.10;0.10;;;;;;;;;;4808000;29;20039;-91
2021/07/28 01:37:45;;;;;;;0.10;0.10;;;;;;;;;;4792813;29;20054;-91
2021/07/28 01:40:12;;;;;;;0.22;0.22;;;;;;;;;;4807855;29;20081;-91
2021/07/28 01:42:41;;;;;;;0.10;0.10;;;;;;;;;;4793013;29;20497;-91
2021/07/28 01:45:08;;;;;;;0.10;0.10;;;;;;;;;;4807900;29;20062;-92
2021/07/28 01:47:34;;;;;;;0.10;0.10;;;;;;;;;;4807578;29;20125;-90
2021/07/28 01:50:00;;;;;;;0.10;0.10;;;;;;;;;;4823001;29;20046;-92
2021/07/28 01:52:26;;;;;;;0.10;0.10;;;;;;;;;;4807867;29;20069;-91
2021/07/28 01:54:52;;;;;;;0.20;0.20;;;;;;;;;;4807699;29;20045;-91
2021/07/28 01:57:18;;;;;;;0.10;0.10;;;;;;;;;;4807595;29;20511;-89
2021/07/28 01:59:44;;;;;;;0.57;0.57;;;;;;;;;;4822908;29;20050;-91
2021/07/28 02:02:10;;;;;;;0.10;0.10;;;;;;;;;;4822529;29;20083;-91
2021/07/28 02:04:36;;;;;;;0.10;0.10;;;;;;;;;;4807807;29;20498;-91
2021/07/28 02:07:02;;;;;;;0.10;0.10;;;;;;;;;;4807700;29;20046;-92
2021/07/28 02:09:28;;;;;;;0.10;0.10;;;;;;;;;;4807841;29;20559;-91
2021/07/28 02:11:55;;;;;;;0.13;0.13;;;;;;;;;;4792489;29;20107;-90
2021/07/28 02:14:21;;;;;;;0.10;0.10;;;;;;;;;;4823543;29;20049;-91
2021/07/28 02:16:47;;;;;;;0.10;0.10;;;;;;;;;;4807548;29;20500;-91
2021/07/28 02:19:13;;;;;;;0.40;0.40;;;;;;;;;;4807435;29;20054;-92
2021/07/28 02:21:39;;;;;;;0.10;0.10;;;;;;;;;;4807412;29;20050;-91
2021/07/28 02:24:05;;;;;;;0.20;0.20;;;;;;;;;;4807519;29;20051;-91
2021/07/28 02:26:31;;;;;;;0.10;0.10;;;;;;;;;;4807453;29;20095;-91
2021/07/28 02:28:58;;;;;;;0.85;0.20;;;;;;;;;;4808021;29;20043;-92
2021/07/28 02:31:24;;;;;;;0.10;0.10;;;;;;;;;;4822601;29;20034;-92
2021/07/28 02:33:50;;;;;;;0.10;0.10;;;;;;;;;;4807541;29;20073;-91
2021/07/28 02:36:16;;;;;;;0.10;0.10;;;;;;;;;;4807764;29;20062;-92
2021/07/28 02:38:42;;;;;;;0.10;0.10;;;;;;;;;;4807187;29;20043;-90
2021/07/28 02:41:08;;;;;;;0.20;0.20;;;;;;;;;;4807305;29;20050;-91
2021/07/28 02:43:34;;;;;;;0.10;0.10;;;;;;;;;;4808658;29;20050;-92
2021/07/28 02:46:00;;;;;;;0.10;0.10;;;;;;;;;;4795619;29;20054;-93
2021/07/28 02:48:26;;;;;;;0.10;0.10;;;;;;;;;;4810532;29;20117;-91
2021/07/28 02:50:52;;;;;;;1.45;0.20;;;;;;;;;;4825504;29;20081;-91
2021/07/28 02:53:21;;;;;;;0.15;0.15;;;;;;;;;;4795379;29;20047;-91
2021/07/28 02:55:47;;;;;;;0.17;0.17;;;;;;;;;;4810270;29;20561;-92
2021/07/28 02:58:13;;;;;;;0.10;0.10;;;;;;;;;;4794989;29;20503;-91
2021/07/28 03:00:40;;;;;;;0.10;0.10;;;;;;;;;;4809955;29;20047;-90
2021/07/28 03:03:08;;;;;;;0.10;0.10;;;;;;;;;;4810156;29;20046;-91
2021/07/28 03:05:34;;;;;;;0.10;0.10;;;;;;;;;;4810010;29;20050;-91
2021/07/28 03:08:00;;;;;;;0.20;0.20;;;;;;;;;;4810012;29;20050;-91
2021/07/28 03:10:26;;;;;;;0.10;0.10;;;;;;;;;;4810138;29;20046;-91
2021/07/28 03:12:52;;;;;;;0.10;0.10;;;;;;;;;;4825034;29;20066;-90
2021/07/28 03:15:18;;;;;;;0.30;0.30;;;;;;;;;;4810029;29;20042;-90
2021/07/28 03:17:44;;;;;;;0.10;0.10;;;;;;;;;;4824833;29;20632;-91
2021/07/28 03:20:10;;;;;;;0.10;0.10;;;;;;;;;;4824888;29;20110;-90
2021/07/28 03:22:41;;;;;;;0.17;0.17;;;;;;;;;;4810474;29;20563;-91
2021/07/28 03:25:07;;;;;;;0.32;0.32;;;;;;;;;;4809954;29;20499;-91
2021/07/28 03:27:33;;;;;;;0.10;0.10;;;;;;;;;;4824907;29;20197;-91
2021/07/28 03:29:59;;;;;;;0.10;0.10;;;;;;;;;;4809936;29;20079;-92
2021/07/28 03:32:26;;;;;;;0.20;0.20;;;;;;;;;;4810105;29;20047;-93
2021/07/28 03:34:52;;;;;;;0.10;0.10;;;;;;;;;;4794908;29;20042;-92
2021/07/28 03:37:18;;;;;;;0.10;0.10;;;;;;;;;;4809712;29;20046;-92
2021/07/28 03:39:45;;;;;;;0.20;0.20;;;;;;;;;;4809933;29;20051;-90
2021/07/28 03:42:11;;;;;;;0.10;0.10;;;;;;;;;;4809644;29;20142;-92
2021/07/28 03:44:37;;;;;;;0.10;0.10;;;;;;;;;;4809541;29;20095;-92
2021/07/28 03:47:03;;;;;;;0.10;0.10;;;;;;;;;;4809288;29;20050;-91
2021/07/28 03:49:29;;;;;;;0.10;0.10;;;;;;;;;;4809575;29;20046;-92
2021/07/28 03:51:55;;;;;;;0.10;0.10;;;;;;;;;;4809625;29;20058;-91
2021/07/28 03:54:22;;;;;;;0.10;0.10;;;;;;;;;;4809430;29;20042;-92
2021/07/28 03:56:48;;;;;;;0.10;0.10;;;;;;;;;;4809551;29;20067;-92
2021/07/28 03:59:14;;;;;;;0.82;0.32;;;;;;;;;;4809319;29;20058;-93
2021/07/28 04:01:40;;;;;;;0.20;0.20;;;;;;;;;;4794685;29;20137;-92
2021/07/28 04:04:06;;;;;;;0.28;0.28;;;;;;;;;;4809332;29;20456;-93
2021/07/28 04:06:32;;;;;;;0.10;0.10;;;;;;;;;;4808988;29;20034;-91
2021/07/28 04:08:59;;;;;;;0.10;0.10;;;;;;;;;;4794251;29;20085;-92
2021/07/28 04:11:25;;;;;;;0.28;0.20;;;;;;;;;;4809159;29;20084;-91
2021/07/28 04:13:51;;;;;;;0.10;0.10;;;;;;;;;;4809068;29;20039;-91
2021/07/28 04:16:18;;;;;;;0.10;0.10;;;;;;;;;;4794262;29;20051;-92
2021/07/28 04:18:45;;;;;;;0.40;0.40;;;;;;;;;;4793640;29;20419;-92
2021/07/28 04:21:11;;;;;;;0.10;0.10;;;;;;;;;;4809391;29;20039;-92
2021/07/28 04:23:37;;;;;;;0.10;0.10;;;;;;;;;;4808807;29;20384;-93
2021/07/28 04:26:03;;;;;;;0.10;0.10;;;;;;;;;;4808882;29;20050;-91
2021/07/28 04:28:31;;;;;;;0.10;0.10;;;;;;;;;;4794115;29;20056;-92
2021/07/28 04:30:57;;;;;;;0.10;0.10;;;;;;;;;;4809096;29;20042;-91
2021/07/28 04:33:23;;;;;;;0.35;0.35;;;;;;;;;;4809182;29;20110;-93
2021/07/28 04:35:49;;;;;;;0.10;0.10;;;;;;;;;;4808849;29;20053;-92
2021/07/28 04:38:15;;;;;;;0.10;0.10;;;;;;;;;;4793873;29;20065;-93
2021/07/28 04:40:42;;;;;;;0.10;0.10;;;;;;;;;;4808750;29;20098;-93
2021/07/28 04:43:08;;;;;;;0.10;0.10;;;;;;;;;;4808618;29;20038;-93
2021/07/28 04:45:34;;;;;;;0.10;0.10;;;;;;;;;;4793688;29;20393;-91
2021/07/28 04:48:04;;;;;;;0.10;0.10;;;;;;;;;;4787752;29;20137;-92
2021/07/28 04:50:32;;;;;;;0.10;0.10;;;;;;;;;;4808867;29;20053;-92
2021/07/28 04:52:58;;;;;;;0.15;0.15;;;;;;;;;;4823681;29;20042;-90
2021/07/28 04:55:24;;;;;;;0.10;0.10;;;;;;;;;;4808570;29;20272;-92
2021/07/28 04:57:50;;;;;;;0.20;0.20;;;;;;;;;;4793619;29;20055;-93
2021/07/28 05:00:17;;;;;;;0.10;0.10;;;;;;;;;;4808389;29;20118;-93
2021/07/28 05:02:43;;;;;;;0.10;0.10;;;;;;;;;;4808286;29;20040;-93
2021/07/28 05:05:09;;;;;;;0.10;0.10;;;;;;;;;;4808476;29;20435;-93
2021/07/28 05:07:35;;;;;;;0.15;0.15;;;;;;;;;;4793091;29;20110;-94
2021/07/28 05:10:06;;;;;;;0.73;0.73;;;;;;;;;;4793827;29;20050;-94
2021/07/28 05:12:32;;;;;;;0.10;0.10;;;;;;;;;;4823532;29;20043;-93
2021/07/28 05:15:00;;;;;;;0.10;0.10;;;;;;;;;;4793288;29;20057;-93
2021/07/28 05:17:28;;;;;;;0.10;0.10;;;;;;;;;;4808673;29;20080;-95
2021/07/28 05:19:54;;;;;;;0.10;0.10;;;;;;;;;;4807743;29;20110;-89
2021/07/28 05:22:20;;;;;;;0.10;0.10;;;;;;;;;;4807571;29;20050;-90
2021/07/28 05:24:47;;;;;;;0.10;0.10;;;;;;;;;;4807695;29;20388;-90
2021/07/28 05:27:14;;;;;;;0.10;0.10;;;;;;;;;;4822817;29;20047;-90
2021/07/28 05:29:40;;;;;;;0.20;0.20;;;;;;;;;;4822593;29;20038;-89
2021/07/28 05:32:06;;;;;;;0.10;0.10;;;;;;;;;;4822872;29;20063;-90
2021/07/28 05:34:32;;;;;;;0.10;0.10;;;;;;;;;;4822892;29;20043;-91
2021/07/28 05:36:58;;;;;;;0.80;0.30;;;;;;;;;;4807955;29;20114;-91
2021/07/28 05:39:25;;;;;;;0.38;0.20;;;;;;;;;;4807838;29;20372;-91
2021/07/28 05:41:51;;;;;;;0.10;0.10;;;;;;;;;;4792591;29;20280;-90
2021/07/28 05:44:17;;;;;;;0.20;0.20;;;;;;;;;;4807899;29;20103;-89
2021/07/28 05:46:43;;;;;;;0.10;0.10;;;;;;;;;;4823030;29;20236;-92
2021/07/28 05:49:09;;;;;;;0.20;0.20;;;;;;;;;;4807895;29;20061;-92
2021/07/28 05:51:35;;;;;;;0.57;0.43;;;;;;;;;;4807771;29;20506;-92
2021/07/28 05:54:01;;;;;;;0.65;0.22;;;;;;;;;;4807694;29;20167;-91
2021/07/28 05:56:28;;;;;;;0.30;0.30;;;;;;;;;;4807847;29;20049;-91
2021/07/28 05:58:54;;;;;;;0.10;0.10;;;;;;;;;;4822552;29;20039;-90
2021/07/28 06:01:20;;;;;;;0.20;0.20;;;;;;;;;;4807354;29;20038;-91
2021/07/28 06:03:47;;;;;;;0.10;0.10;;;;;;;;;;4792268;29;20050;-90
2021/07/28 06:06:13;;;;;;;0.10;0.10;;;;;;;;;;4822226;29;20484;-89
2021/07/28 06:08:39;;;;;;;0.10;0.10;;;;;;;;;;4807340;29;20057;-91
2021/07/28 06:11:05;;;;;;;0.30;0.30;;;;;;;;;;4807423;29;20046;-90
2021/07/28 06:13:31;;;;;;;0.20;0.20;;;;;;;;;;4807777;29;20058;-91
2021/07/28 06:15:57;;;;;;;0.98;0.40;;;;;;;;;;4808597;29;20038;-93
2021/07/28 06:18:23;;;;;;;0.45;0.45;;;;;;;;;;4793754;29;20067;-92
2021/07/28 06:20:49;;;;;;;0.10;0.10;;;;;;;;;;4810958;29;20129;-91
2021/07/28 06:23:15;;;;;;;0.10;0.10;;;;;;;;;;4810796;29;20103;-90
2021/07/28 06:25:42;;;;;;;0.13;0.13;;;;;;;;;;4825686;29;20110;-90
2021/07/28 06:28:08;;;;;;;0.30;0.30;;;;;;;;;;4811569;29;20068;-94
2021/07/28 06:30:39;;;;;;;0.20;0.20;;;;;;;;;;4799974;29;20407;-95
2021/07/28 06:33:35;;;;;;;0.20;0.20;;;;;;;;;;4810846;29;20058;-96
2021/07/28 06:44:20;;;;;;;0.20;0.20;;;;;;;;;;5241556;23;20388;-94
2021/07/28 06:46:46;;;;;;;0.20;0.20;;;;;;;;;;4826634;29;20087;-94
2021/07/28 06:49:12;;;;;;;0.13;0.13;;;;;;;;;;4781195;29;20058;-93
2021/07/28 06:51:47;;;;;;;0.28;0.28;;;;;;;;;;4781654;29;20050;-95
2021/07/28 06:54:14;;;;;;;0.10;0.10;;;;;;;;;;4781798;29;20054;-92
2021/07/28 06:56:41;;;;;;;0.15;0.15;;;;;;;;;;4793612;29;20047;-92
2021/07/28 06:59:07;;;;;;;0.28;0.28;;;;;;;;;;4813474;29;20046;-90
2021/07/28 07:01:33;;;;;;;0.15;0.15;;;;;;;;;;4813350;29;20049;-90
2021/07/28 07:04:16;;;;;;;0.10;0.10;;;;;;;;;;4798148;29;20102;-96
2021/07/28 07:06:49;;;;;;;0.10;0.10;;;;;;;;;;4811337;29;20079;-96
2021/07/28 07:09:18;;;;;;;0.20;0.20;;;;;;;;;;4809596;29;20050;-95
2021/07/28 07:11:48;;;;;;;0.20;0.20;;;;;;;;;;4818694;29;20074;-96
2021/07/28 07:14:17;;;;;;;0.10;0.10;;;;;;;;;;4800933;29;20050;-96
2021/07/28 07:16:44;;;;;;;0.20;0.20;;;;;;;;;;4814127;29;20038;-93
2021/07/28 07:19:25;;;;;;;0.32;0.22;;;;;;;;;;4783111;29;20062;-94
2021/07/28 07:21:52;;;;;;;0.10;0.10;;;;;;;;;;4791126;29;20324;-96
2021/07/28 07:24:18;;;;;;;0.20;0.20;;;;;;;;;;4792240;29;20055;-94
2021/07/28 07:26:52;;;;;;;0.20;0.20;;;;;;;;;;4792091;29;20065;-95
2021/07/28 07:29:21;;;;;;;0.20;0.20;;;;;;;;;;4796774;29;20051;-96
2021/07/28 07:32:05;;;;;;;0.20;0.20;;;;;;;;;;4811070;29;20066;-96
2021/07/28 07:34:31;;;;;;;0.10;0.10;;;;;;;;;;4793724;29;20527;-93
2021/07/28 07:36:58;;;;;;;0.20;0.20;;;;;;;;;;4791503;29;20104;-94
2021/07/28 07:39:24;;;;;;;0.10;0.10;;;;;;;;;;4793518;29;20046;-92
2021/07/28 07:41:50;;;;;;;0.10;0.10;;;;;;;;;;4805998;29;20047;-95
2021/07/28 07:44:16;;;;;;;0.10;0.10;;;;;;;;;;4790508;29;20058;-90
2021/07/28 07:46:43;;;;;;;0.30;0.30;;;;;;;;;;4790269;29;20046;-91
2021/07/28 07:49:09;;;;;;;0.38;0.30;;;;;;;;;;4790330;29;20043;-91
2021/07/28 07:51:35;;;;;;;0.20;0.20;;;;;;;;;;4805605;29;20050;-93
2021/07/28 07:54:01;;;;;;;0.10;0.10;;;;;;;;;;4789683;29;20100;-91
2021/07/28 07:56:28;;;;;;;0.30;0.30;;;;;;;;;;4796597;29;20496;-91
2021/07/28 07:58:54;;;;;;;0.10;0.10;;;;;;;;;;4793992;29;20110;-90
2021/07/28 08:01:20;;;;;;;0.10;0.10;;;;;;;;;;4808971;29;20095;-89
2021/07/28 08:03:47;;;;;;;0.10;0.10;;;;;;;;;;4793433;29;20043;-93
2021/07/28 08:06:13;;;;;;;0.20;0.20;;;;;;;;;;4794093;29;20046;-91
2021/07/28 08:08:40;;;;;;;0.10;0.10;;;;;;;;;;4793246;29;20067;-90
2021/07/28 08:11:06;;;;;;;0.10;0.10;;;;;;;;;;4778426;29;20503;-90
2021/07/28 08:13:32;;;;;;;0.10;0.10;;;;;;;;;;4793231;29;20042;-90
2021/07/28 08:15:59;;;;;;;0.10;0.10;;;;;;;;;;4793072;29;20506;-91
2021/07/28 08:18:25;;;;;;;0.10;0.10;;;;;;;;;;4793253;29;20118;-90
2021/07/28 08:20:51;;;;;;;0.10;0.10;;;;;;;;;;4793176;29;20038;-90
2021/07/28 08:23:19;;;;;;;0.30;0.30;;;;;;;;;;4778451;29;20504;-94
2021/07/28 08:25:45;;;;;;;0.15;0.15;;;;;;;;;;4799521;29;20046;-91
2021/07/28 08:28:13;;;;;;;0.70;0.70;;;;;;;;;;4793683;29;20046;-92
2021/07/28 08:30:40;;;;;;;0.32;0.32;;;;;;;;;;4778722;29;20054;-92
2021/07/28 08:33:06;;;;;;;0.10;0.10;;;;;;;;;;4779404;29;20050;-88
2021/07/28 08:35:32;;;;;;;0.10;0.10;;;;;;;;;;4793576;29;20042;-93
2021/07/28 08:38:00;;;;;;;0.20;0.20;;;;;;;;;;4780764;29;20077;-94
2021/07/28 08:40:29;;;;;;;1.10;0.30;;;;;;;;;;4795343;29;20066;-95
2021/07/28 08:42:59;;;;;;;0.47;0.47;;;;;;;;;;4826355;29;20051;-94
2021/07/28 08:45:25;;;;;;;0.45;0.45;;;;;;;;;;4807056;29;20063;-89
2021/07/28 08:47:52;;;;;;;0.10;0.10;;;;;;;;;;4779919;29;20058;-94
2021/07/28 08:50:28;;;;;;;0.20;0.20;;;;;;;;;;4796884;29;20078;-95
2021/07/28 08:52:58;;;;;;;0.32;0.32;;;;;;;;;;4787418;29;20547;-95
2021/07/28 08:55:27;;;;;;;0.40;0.40;;;;;;;;;;4816809;29;20082;-95
2021/07/28 08:57:58;;;;;;;0.20;0.20;;;;;;;;;;4795680;29;20121;-93
2021/07/28 09:00:25;;;;;;;0.10;0.10;;;;;;;;;;4796785;29;20105;-94
2021/07/28 09:02:51;;;;;;;0.20;0.20;;;;;;;;;;4785910;29;20051;-95
2021/07/28 09:05:18;;;;;;;0.40;0.40;;;;;;;;;;4784920;29;20055;-96
2021/07/28 09:07:44;;;;;;;0.10;0.10;;;;;;;;;;4796691;29;20424;-94
2021/07/28 09:10:13;;;;;;;0.20;0.20;;;;;;;;;;4797255;29;20123;-89
2021/07/28 09:12:42;;;;;;;0.38;0.38;;;;;;;;;;4790586;29;20488;-91
2021/07/28 09:15:09;;;;;;;0.20;0.20;;;;;;;;;;4790448;29;20038;-94
2021/07/28 09:17:36;;;;;;;1.00;0.50;;;;;;;;;;4790333;29;20107;-91
2021/07/28 09:20:05;;;;;;;0.30;0.30;;;;;;;;;;4775592;29;20047;-93
2021/07/28 09:22:41;;;;;;;0.10;0.10;;;;;;;;;;4804880;29;20488;-91
2021/07/28 09:25:20;;;;;;;0.20;0.20;;;;;;;;;;4789911;29;20412;-92
2021/07/28 09:27:46;;;;;;;0.40;0.40;;;;;;;;;;4790204;29;20122;-90
2021/07/28 09:30:15;;;;;;;0.20;0.20;;;;;;;;;;4804378;29;20050;-89
2021/07/28 09:33:00;;;;;;;0.10;0.10;;;;;;;;;;4789781;29;20054;-93
2021/07/28 09:35:46;;;;;;;0.20;0.20;;;;;;;;;;4803944;29;20145;-92
2021/07/28 09:38:12;;;;;;;0.10;0.10;;;;;;;;;;4752316;30;20520;-90
2021/07/28 09:40:38;;;;;;;0.20;0.20;;;;;;;;;;4780833;29;20054;-92
2021/07/28 09:43:04;;;;;;;0.20;0.20;;;;;;;;;;4774696;29;20078;-91
2021/07/28 09:45:31;;;;;;;0.55;0.22;;;;;;;;;;4788920;29;20069;-89
2021/07/28 09:47:57;;;;;;;0.20;0.20;;;;;;;;;;4788875;29;20103;-89
2021/07/28 09:50:22;;;;;;;0.20;0.20;;;;;;;;;;4812325;29;20046;-89
2021/07/28 09:52:51;;;;;;;0.40;0.40;;;;;;;;;;4808842;29;20046;-91
2021/07/28 09:55:24;;;;;;;0.20;0.20;;;;;;;;;;4808836;29;20057;-89
2021/07/28 09:57:55;;;;;;;0.28;0.28;;;;;;;;;;4822854;29;20039;-89
2021/07/28 10:00:21;;;;;;;0.38;0.30;;;;;;;;;;4810966;29;20141;-93
2021/07/28 10:02:48;;;;;;;0.10;0.10;;;;;;;;;;4811048;29;20047;-93
2021/07/28 10:05:14;;;;;;;0.20;0.20;;;;;;;;;;4825710;29;20049;-92
2021/07/28 10:07:40;;;;;;;0.30;0.30;;;;;;;;;;4828217;29;20050;-89
2021/07/28 10:10:09;;;;;;;0.25;0.25;;;;;;;;;;4829390;29;20061;-89
2021/07/28 10:12:35;;;;;;;0.40;0.40;;;;;;;;;;4831091;29;20239;-92
2021/07/28 10:15:01;;;;;;;0.20;0.20;;;;;;;;;;4825747;29;20048;-90
2021/07/28 10:17:27;;;;;;;0.20;0.20;;;;;;;;;;4825923;29;20506;-93
2021/07/28 10:19:53;;;;;;;0.20;0.20;;;;;;;;;;4826295;29;20126;-90
2021/07/28 10:22:19;;;;;;;0.20;0.20;;;;;;;;;;4810842;29;20050;-91
2021/07/28 10:24:46;;;;;;;0.22;0.22;;;;;;;;;;4825225;29;20046;-91
2021/07/28 10:27:12;;;;;;;0.20;0.20;;;;;;;;;;4825390;29;20046;-91
2021/07/28 10:29:38;;;;;;;0.20;0.20;;;;;;;;;;4840165;29;20095;-89
2021/07/28 10:32:06;;;;;;;0.20;0.20;;;;;;;;;;4840165;29;20447;-89
2021/07/28 10:34:32;;;;;;;0.15;0.15;;;;;;;;;;4824715;29;20052;-89
2021/07/28 10:37:03;;;;;;;0.20;0.20;;;;;;;;;;4824844;29;20058;-89
2021/07/28 10:39:43;;;;;;;0.32;0.32;;;;;;;;;;4826261;29;20071;-91
2021/07/28 10:42:19;;;;;;;0.20;0.20;;;;;;;;;;4824963;29;20129;-90
2021/07/28 10:44:57;;;;;;;0.60;0.40;;;;;;;;;;4824778;29;20061;-89
2021/07/28 10:47:33;;;;;;;0.30;0.30;;;;;;;;;;4824478;29;20054;-88
2021/07/28 10:49:59;;;;;;;0.65;0.40;;;;;;;;;;4824716;29;20043;-89
2021/07/28 10:52:36;;;;;;;0.30;0.20;;;;;;;;;;4840026;29;20049;-94
2021/07/28 10:55:02;;;;;;;0.10;0.10;;;;;;;;;;4824751;29;20046;-90
2021/07/28 10:57:39;;;;;;;0.20;0.20;;;;;;;;;;4824495;29;20057;-90
2021/07/28 11:00:08;;;;;;;0.20;0.20;;;;;;;;;;4824713;29;20057;-89
2021/07/28 11:02:53;;;;;;;0.20;0.20;;;;;;;;;;4839841;29;20126;-90
2021/07/28 11:05:22;;;;;;;0.10;0.10;;;;;;;;;;4808847;29;20138;-90
2021/07/28 11:08:03;;;;;;;0.20;0.20;;;;;;;;;;4824472;29;20270;-89
2021/07/28 11:10:29;;;;;;;0.10;0.10;;;;;;;;;;4824348;29;20050;-89
2021/07/28 11:12:55;;;;;;;0.73;0.73;;;;;;;;;;4825432;29;20511;-90
2021/07/28 11:15:21;;;;;;;0.20;0.20;;;;;;;;;;4824107;29;20538;-90
2021/07/28 11:17:52;;;;;;;0.30;0.20;;;;;;;;;;4839524;29;20465;-89
2021/07/28 11:20:31;;;;;;;0.10;0.10;;;;;;;;;;4824605;29;20070;-91
2021/07/28 11:23:17;;;;;;;0.13;0.13;;;;;;;;;;4825413;29;20403;-93
2021/07/28 11:25:43;;;;;;;0.10;0.10;;;;;;;;;;4797591;29;20058;-90
2021/07/28 11:28:09;;;;;;;0.10;0.10;;;;;;;;;;4824375;29;20041;-93
2021/07/28 11:30:35;;;;;;;0.15;0.15;;;;;;;;;;4839460;29;20099;-88
2021/07/28 11:33:15;;;;;;;0.20;0.20;;;;;;;;;;4839475;29;20055;-88
2021/07/28 11:35:43;;;;;;;0.20;0.20;;;;;;;;;;4839096;29;20476;-88
2021/07/28 11:38:15;;;;;;;0.28;0.28;;;;;;;;;;4824053;29;20038;-95
2021/07/28 11:40:43;;;;;;;0.20;0.20;;;;;;;;;;4810300;29;20483;-95
2021/07/28 11:43:30;;;;;;;0.20;0.20;;;;;;;;;;4826658;29;20049;-93
2021/07/28 11:45:57;;;;;;;0.52;0.52;;;;;;;;;;4826971;29;20046;-93
2021/07/28 11:48:50;;;;;;;0.20;0.20;;;;;;;;;;4808429;29;20063;-94
2021/07/28 11:51:27;;;;;;;0.30;0.30;;;;;;;;;;4811031;29;20176;-93
2021/07/28 11:54:12;;;;;;;0.20;0.20;;;;;;;;;;4792306;29;20552;-92
2021/07/28 11:56:40;;;;;;;0.13;0.13;;;;;;;;;;4806756;29;20515;-91
2021/07/28 11:59:06;;;;;;;0.10;0.10;;;;;;;;;;4806355;29;20047;-92
2021/07/28 12:01:33;;;;;;;0.10;0.10;;;;;;;;;;4790798;29;20050;-90
2021/07/28 12:04:07;;;;;;;0.10;0.10;;;;;;;;;;4790952;29;20050;-91
2021/07/28 12:06:40;;;;;;;0.10;0.10;;;;;;;;;;4805828;29;20491;-90
2021/07/28 12:09:31;;;;;;;0.22;0.22;;;;;;;;;;4811347;29;20042;-96
2021/07/28 12:12:19;;;;;;;0.20;0.20;;;;;;;;;;4806666;29;20061;-89
2021/07/28 12:14:45;;;;;;;0.20;0.20;;;;;;;;;;4805158;29;20111;-89
2021/07/28 12:17:14;;;;;;;0.20;0.20;;;;;;;;;;4805508;29;20159;-92
2021/07/28 12:19:41;;;;;;;0.10;0.10;;;;;;;;;;4790456;29;20053;-91
2021/07/28 12:22:11;;;;;;;0.50;0.50;;;;;;;;;;4790587;29;20487;-90
2021/07/28 12:24:38;;;;;;;0.20;0.20;;;;;;;;;;4790408;29;20587;-89
2021/07/28 12:27:23;;;;;;;0.20;0.20;;;;;;;;;;4820151;29;20043;-90
2021/07/28 12:30:04;;;;;;;0.10;0.10;;;;;;;;;;4806312;29;20043;-89
2021/07/28 12:32:39;;;;;;;0.10;0.10;;;;;;;;;;4806063;29;20045;-88
2021/07/28 12:35:06;;;;;;;0.10;0.10;;;;;;;;;;4804917;29;20466;-89
2021/07/28 12:37:32;;;;;;;0.22;0.22;;;;;;;;;;4804749;29;20038;-89
2021/07/28 12:39:58;;;;;;;0.10;0.10;;;;;;;;;;4805008;29;20035;-91
2021/07/28 12:42:24;;;;;;;0.20;0.20;;;;;;;;;;4820348;29;20042;-90
2021/07/28 12:44:51;;;;;;;0.20;0.20;;;;;;;;;;4808303;29;20073;-90
2021/07/28 12:47:18;;;;;;;0.20;0.20;;;;;;;;;;4823391;29;20558;-92
2021/07/28 12:49:44;;;;;;;0.20;0.20;;;;;;;;;;4823524;29;20460;-91
2021/07/28 12:52:10;;;;;;;0.20;0.20;;;;;;;;;;4823094;29;20121;-89
2021/07/28 12:54:36;;;;;;;0.30;0.30;;;;;;;;;;4838204;29;20057;-89
2021/07/28 12:57:02;;;;;;;0.28;0.28;;;;;;;;;;4822989;29;20495;-89
2021/07/28 12:59:29;;;;;;;0.30;0.30;;;;;;;;;;4808031;29;20050;-92
2021/07/28 13:01:58;;;;;;;0.50;0.50;;;;;;;;;;4815331;29;20055;-89
2021/07/28 13:04:26;;;;;;;0.20;0.20;;;;;;;;;;4805953;29;20171;-91
2021/07/28 13:06:58;;;;;;;0.20;0.20;;;;;;;;;;4804702;29;20053;-89
2021/07/28 13:09:24;;;;;;;0.20;0.20;;;;;;;;;;4790153;29;20051;-89
2021/07/28 13:11:50;;;;;;;0.10;0.10;;;;;;;;;;4804501;29;20508;-89
2021/07/28 13:14:16;;;;;;;0.20;0.20;;;;;;;;;;4804391;29;20039;-89
2021/07/28 13:16:42;;;;;;;0.20;0.20;;;;;;;;;;4788880;29;20090;-90
2021/07/28 13:19:08;;;;;;;0.10;0.10;;;;;;;;;;4789256;29;20096;-90
2021/07/28 13:21:34;;;;;;;0.20;0.20;;;;;;;;;;4805505;29;20043;-89
2021/07/28 13:24:00;;;;;;;0.20;0.20;;;;;;;;;;4789405;29;20049;-89
2021/07/28 13:26:26;;;;;;;0.17;0.17;;;;;;;;;;4789129;29;20438;-91
2021/07/28 13:28:52;;;;;;;0.20;0.20;;;;;;;;;;4789394;29;20057;-91
2021/07/28 13:31:18;;;;;;;0.30;0.30;;;;;;;;;;4804515;29;20046;-89
2021/07/28 13:33:44;;;;;;;0.20;0.20;;;;;;;;;;4804053;29;20034;-88
2021/07/28 13:36:11;;;;;;;0.10;0.10;;;;;;;;;;4789179;29;20046;-88
2021/07/28 13:38:37;;;;;;;0.10;0.10;;;;;;;;;;4803903;29;20096;-89
2021/07/28 13:41:03;;;;;;;0.32;0.32;;;;;;;;;;4789026;29;20039;-88
2021/07/28 13:43:29;;;;;;;0.20;0.20;;;;;;;;;;4775360;29;20058;-87
2021/07/28 13:45:55;;;;;;;0.10;0.10;;;;;;;;;;4792237;29;20117;-87
2021/07/28 13:48:21;;;;;;;0.20;0.20;;;;;;;;;;4791363;29;20492;-88
2021/07/28 13:50:46;;;;;;;0.20;0.20;;;;;;;;;;4807026;29;20042;-90
2021/07/28 13:53:13;;;;;;;0.10;0.10;;;;;;;;;;4806959;29;20053;-89
2021/07/28 13:55:39;;;;;;;0.10;0.10;;;;;;;;;;4791961;29;20427;-88
2021/07/28 13:58:06;;;;;;;0.10;0.10;;;;;;;;;;4807317;29;20051;-89
2021/07/28 14:00:32;;;;;;;0.20;0.20;;;;;;;;;;4792453;29;20052;-89
2021/07/28 14:02:59;;;;;;;0.10;0.10;;;;;;;;;;4793112;29;20038;-91
2021/07/28 14:05:25;;;;;;;0.20;0.20;;;;;;;;;;4777403;29;20050;-90
2021/07/28 14:07:51;;;;;;;0.10;0.10;;;;;;;;;;4791960;29;20088;-88
2021/07/28 14:10:17;;;;;;;0.20;0.20;;;;;;;;;;4806942;29;20107;-90
2021/07/28 14:12:46;;;;;;;0.32;0.32;;;;;;;;;;4792832;29;20095;-88
2021/07/28 14:15:13;;;;;;;0.10;0.10;;;;;;;;;;4791560;29;20054;-89
2021/07/28 14:17:39;;;;;;;0.20;0.20;;;;;;;;;;4791807;29;20078;-89
2021/07/28 14:20:06;;;;;;;0.20;0.20;;;;;;;;;;4806810;29;20069;-89
2021/07/28 14:22:34;;;;;;;0.10;0.10;;;;;;;;;;4776991;29;20122;-89
2021/07/28 14:25:00;;;;;;;0.10;0.10;;;;;;;;;;4777113;29;20054;-89
2021/07/28 14:27:26;;;;;;;0.20;0.20;;;;;;;;;;4806664;29;20042;-90
2021/07/28 14:29:52;;;;;;;0.10;0.10;;;;;;;;;;4791527;29;20058;-90
2021/07/28 14:32:18;;;;;;;0.20;0.20;;;;;;;;;;4806872;29;20049;-87
2021/07/28 14:34:44;;;;;;;0.20;0.20;;;;;;;;;;4791461;29;20411;-87
2021/07/28 14:37:11;;;;;;;0.10;0.10;;;;;;;;;;4791497;29;20046;-89
2021/07/28 14:39:37;;;;;;;0.20;0.20;;;;;;;;;;4792897;29;20054;-89
2021/07/28 14:42:04;;;;;;;0.20;0.20;;;;;;;;;;4794762;29;20058;-88
2021/07/28 14:44:30;;;;;;;0.20;0.20;;;;;;;;;;4809753;29;20054;-88
2021/07/28 14:46:56;;;;;;;0.10;0.10;;;;;;;;;;4809767;29;20083;-87
2021/07/28 14:49:22;;;;;;;0.20;0.20;;;;;;;;;;4779852;29;20094;-88
2021/07/28 14:51:54;;;;;;;0.10;0.10;;;;;;;;;;4809997;29;20408;-87
2021/07/28 14:54:22;;;;;;;0.20;0.20;;;;;;;;;;4825654;29;20042;-90
2021/07/28 14:56:48;;;;;;;0.10;0.10;;;;;;;;;;4794613;29;20495;-88
2021/07/28 14:59:14;;;;;;;0.40;0.40;;;;;;;;;;4779279;29;20340;-89
2021/07/28 15:01:40;;;;;;;0.10;0.10;;;;;;;;;;4809692;29;20321;-90